sensor_id;sensor_type;location;lat;lon;timestamp;temperature;humidity
20335;DHT22;10325;51.468;5.804;2023-03-14T00:01:39;17.90;63.50
20335;DHT22;10325;51.468;5.804;2023-03-14T00:04:10;17.90;63.30
20335;DHT22;10325;51.468;5.804;2023-03-14T00:06:45;17.80;63.20
20335;DHT22;10325;51.468;5.804;2023-03-14T00:09:23;17.80;63.30
20335;DHT22;10325;51.468;5.804;2023-03-14T00:11:53;17.90;63.40
20335;DHT22;10325;51.468;5.804;2023-03-14T00:14:24;17.80;63.10
20335;DHT22;10325;51.468;5.804;2023-03-14T00:16:56;17.80;63.10
20335;DHT22;10325;51.468;5.804;2023-03-14T00:19:27;17.90;63.30
20335;DHT22;10325;51.468;5.804;2023-03-14T00:21:56;17.80;63.30
20335;DHT22;10325;51.468;5.804;2023-03-14T00:24:23;17.80;63.00
20335;DHT22;10325;51.468;5.804;2023-03-14T00:26:53;17.80;63.10
20335;DHT22;10325;51.468;5.804;2023-03-14T00:29:25;17.80;63.10
20335;DHT22;10325;51.468;5.804;2023-03-14T00:31:56;17.80;63.10
20335;DHT22;10325;51.468;5.804;2023-03-14T00:34:29;17.80;63.10
20335;DHT22;10325;51.468;5.804;2023-03-14T00:36:57;17.80;63.10
20335;DHT22;10325;51.468;5.804;2023-03-14T00:39:27;17.80;63.20
20335;DHT22;10325;51.468;5.804;2023-03-14T00:41:59;17.80;63.20
20335;DHT22;10325;51.468;5.804;2023-03-14T00:44:29;17.80;62.90
20335;DHT22;10325;51.468;5.804;2023-03-14T00:47:03;17.80;63.10
20335;DHT22;10325;51.468;5.804;2023-03-14T00:49:34;17.80;62.90
20335;DHT22;10325;51.468;5.804;2023-03-14T00:52:03;17.80;63.10
20335;DHT22;10325;51.468;5.804;2023-03-14T00:54:32;17.80;63.00
20335;DHT22;10325;51.468;5.804;2023-03-14T00:57:03;17.80;63.10
20335;DHT22;10325;51.468;5.804;2023-03-14T00:59:33;17.80;63.20
20335;DHT22;10325;51.468;5.804;2023-03-14T01:02:06;17.80;63.20
20335;DHT22;10325;51.468;5.804;2023-03-14T01:04:50;17.80;63.10
20335;DHT22;10325;51.468;5.804;2023-03-14T01:07:22;17.80;63.10
20335;DHT22;10325;51.468;5.804;2023-03-14T01:09:52;17.80;63.10
20335;DHT22;10325;51.468;5.804;2023-03-14T01:12:24;17.80;63.20
20335;DHT22;10325;51.468;5.804;2023-03-14T01:14:58;17.80;63.10
20335;DHT22;10325;51.468;5.804;2023-03-14T01:17:26;17.70;63.10
20335;DHT22;10325;51.468;5.804;2023-03-14T01:19:56;17.70;63.10
20335;DHT22;10325;51.468;5.804;2023-03-14T01:22:25;17.80;63.20
20335;DHT22;10325;51.468;5.804;2023-03-14T01:24:57;17.70;63.30
20335;DHT22;10325;51.468;5.804;2023-03-14T01:27:29;17.80;63.30
20335;DHT22;10325;51.468;5.804;2023-03-14T01:30:00;17.70;63.30
20335;DHT22;10325;51.468;5.804;2023-03-14T01:32:30;17.70;63.30
20335;DHT22;10325;51.468;5.804;2023-03-14T01:35:02;17.70;63.30
20335;DHT22;10325;51.468;5.804;2023-03-14T01:37:34;17.70;63.30
20335;DHT22;10325;51.468;5.804;2023-03-14T01:40:09;17.70;63.20
20335;DHT22;10325;51.468;5.804;2023-03-14T01:42:45;17.70;63.20
20335;DHT22;10325;51.468;5.804;2023-03-14T01:48:28;17.70;63.20
20335;DHT22;10325;51.468;5.804;2023-03-14T01:51:08;17.70;63.10
20335;DHT22;10325;51.468;5.804;2023-03-14T01:53:40;17.70;63.20
20335;DHT22;10325;51.468;5.804;2023-03-14T01:56:15;17.70;63.20
20335;DHT22;10325;51.468;5.804;2023-03-14T01:59:19;17.70;63.30
20335;DHT22;10325;51.468;5.804;2023-03-14T02:01:52;17.70;63.30
20335;DHT22;10325;51.468;5.804;2023-03-14T02:04:34;17.70;63.20
20335;DHT22;10325;51.468;5.804;2023-03-14T02:07:22;17.70;63.10
20335;DHT22;10325;51.468;5.804;2023-03-14T02:09:59;17.70;63.20
20335;DHT22;10325;51.468;5.804;2023-03-14T02:12:31;17.70;63.10
20335;DHT22;10325;51.468;5.804;2023-03-14T02:15:06;17.70;63.00
20335;DHT22;10325;51.468;5.804;2023-03-14T02:17:40;17.70;63.00
20335;DHT22;10325;51.468;5.804;2023-03-14T02:23:53;17.70;63.00
20335;DHT22;10325;51.468;5.804;2023-03-14T02:27:24;17.70;63.00
20335;DHT22;10325;51.468;5.804;2023-03-14T02:30:03;17.70;63.00
20335;DHT22;10325;51.468;5.804;2023-03-14T02:32:37;17.60;63.00
20335;DHT22;10325;51.468;5.804;2023-03-14T02:35:17;17.60;63.00
20335;DHT22;10325;51.468;5.804;2023-03-14T02:38:17;17.60;63.00
20335;DHT22;10325;51.468;5.804;2023-03-14T02:40:53;17.60;62.70
20335;DHT22;10325;51.468;5.804;2023-03-14T02:43:25;17.60;62.90
20335;DHT22;10325;51.468;5.804;2023-03-14T02:45:54;17.60;62.70
20335;DHT22;10325;51.468;5.804;2023-03-14T02:48:35;17.60;62.90
20335;DHT22;10325;51.468;5.804;2023-03-14T02:51:09;17.60;62.70
20335;DHT22;10325;51.468;5.804;2023-03-14T02:53:38;17.60;62.90
20335;DHT22;10325;51.468;5.804;2023-03-14T02:56:08;17.60;62.60
20335;DHT22;10325;51.468;5.804;2023-03-14T02:58:42;17.60;63.00
20335;DHT22;10325;51.468;5.804;2023-03-14T03:01:11;17.60;62.80
20335;DHT22;10325;51.468;5.804;2023-03-14T03:03:42;17.60;62.80
20335;DHT22;10325;51.468;5.804;2023-03-14T03:06:26;17.60;62.90
20335;DHT22;10325;51.468;5.804;2023-03-14T03:09:01;17.60;62.80
20335;DHT22;10325;51.468;5.804;2023-03-14T03:11:33;17.60;62.70
20335;DHT22;10325;51.468;5.804;2023-03-14T03:14:03;17.60;63.30
20335;DHT22;10325;51.468;5.804;2023-03-14T03:16:34;17.60;62.90
20335;DHT22;10325;51.468;5.804;2023-03-14T03:19:05;17.60;62.80
20335;DHT22;10325;51.468;5.804;2023-03-14T03:21:34;17.60;62.80
20335;DHT22;10325;51.468;5.804;2023-03-14T03:24:06;17.60;62.70
20335;DHT22;10325;51.468;5.804;2023-03-14T03:26:37;17.50;62.70
20335;DHT22;10325;51.468;5.804;2023-03-14T03:29:09;17.50;62.70
20335;DHT22;10325;51.468;5.804;2023-03-14T03:31:38;17.60;62.80
20335;DHT22;10325;51.468;5.804;2023-03-14T03:34:21;17.50;62.70
20335;DHT22;10325;51.468;5.804;2023-03-14T03:36:57;17.50;62.90
20335;DHT22;10325;51.468;5.804;2023-03-14T03:39:30;17.50;62.80
20335;DHT22;10325;51.468;5.804;2023-03-14T03:42:03;17.50;62.90
20335;DHT22;10325;51.468;5.804;2023-03-14T03:44:29;17.50;62.80
20335;DHT22;10325;51.468;5.804;2023-03-14T03:46:59;17.50;62.80
20335;DHT22;10325;51.468;5.804;2023-03-14T03:49:33;17.50;62.90
20335;DHT22;10325;51.468;5.804;2023-03-14T03:52:05;17.50;62.90
20335;DHT22;10325;51.468;5.804;2023-03-14T03:54:33;17.50;62.90
20335;DHT22;10325;51.468;5.804;2023-03-14T03:57:02;17.50;62.90
20335;DHT22;10325;51.468;5.804;2023-03-14T03:59:29;17.50;62.80
20335;DHT22;10325;51.468;5.804;2023-03-14T04:02:01;17.50;62.80
20335;DHT22;10325;51.468;5.804;2023-03-14T04:04:28;17.50;62.70
20335;DHT22;10325;51.468;5.804;2023-03-14T04:06:59;17.50;62.80
20335;DHT22;10325;51.468;5.804;2023-03-14T04:09:30;17.50;62.70
20335;DHT22;10325;51.468;5.804;2023-03-14T04:12:09;17.50;62.80
20335;DHT22;10325;51.468;5.804;2023-03-14T04:14:42;17.50;62.90
20335;DHT22;10325;51.468;5.804;2023-03-14T04:17:26;17.50;63.00
20335;DHT22;10325;51.468;5.804;2023-03-14T04:19:59;17.50;62.90
20335;DHT22;10325;51.468;5.804;2023-03-14T04:22:29;17.50;62.90
20335;DHT22;10325;51.468;5.804;2023-03-14T04:25:00;17.50;62.90
20335;DHT22;10325;51.468;5.804;2023-03-14T04:27:33;17.50;62.90
20335;DHT22;10325;51.468;5.804;2023-03-14T04:30:02;17.50;62.70
20335;DHT22;10325;51.468;5.804;2023-03-14T04:32:35;17.50;62.90
20335;DHT22;10325;51.468;5.804;2023-03-14T04:35:09;17.50;62.80
20335;DHT22;10325;51.468;5.804;2023-03-14T04:37:40;17.50;62.70
20335;DHT22;10325;51.468;5.804;2023-03-14T04:40:12;17.50;62.70
20335;DHT22;10325;51.468;5.804;2023-03-14T04:42:46;17.50;62.80
20335;DHT22;10325;51.468;5.804;2023-03-14T04:45:18;17.50;62.60
20335;DHT22;10325;51.468;5.804;2023-03-14T04:47:50;17.50;62.60
20335;DHT22;10325;51.468;5.804;2023-03-14T04:50:21;17.50;62.60
20335;DHT22;10325;51.468;5.804;2023-03-14T04:52:53;17.50;62.50
20335;DHT22;10325;51.468;5.804;2023-03-14T04:55:24;17.50;62.60
20335;DHT22;10325;51.468;5.804;2023-03-14T04:57:58;17.50;62.50
20335;DHT22;10325;51.468;5.804;2023-03-14T05:00:29;17.50;62.50
20335;DHT22;10325;51.468;5.804;2023-03-14T05:03:00;17.50;62.50
20335;DHT22;10325;51.468;5.804;2023-03-14T05:05:30;17.50;62.50
20335;DHT22;10325;51.468;5.804;2023-03-14T05:07:59;17.50;62.50
20335;DHT22;10325;51.468;5.804;2023-03-14T05:10:30;17.40;62.40
20335;DHT22;10325;51.468;5.804;2023-03-14T05:13:00;17.40;62.40
20335;DHT22;10325;51.468;5.804;2023-03-14T05:15:30;17.40;62.50
20335;DHT22;10325;51.468;5.804;2023-03-14T05:17:58;17.40;62.40
20335;DHT22;10325;51.468;5.804;2023-03-14T05:20:29;17.40;62.40
20335;DHT22;10325;51.468;5.804;2023-03-14T05:22:59;17.40;62.30
20335;DHT22;10325;51.468;5.804;2023-03-14T05:25:43;17.40;62.40
20335;DHT22;10325;51.468;5.804;2023-03-14T05:28:14;17.40;62.40
20335;DHT22;10325;51.468;5.804;2023-03-14T05:30:49;17.40;62.40
20335;DHT22;10325;51.468;5.804;2023-03-14T05:33:20;17.40;62.40
20335;DHT22;10325;51.468;5.804;2023-03-14T05:35:51;17.40;62.40
20335;DHT22;10325;51.468;5.804;2023-03-14T05:38:21;17.40;62.40
20335;DHT22;10325;51.468;5.804;2023-03-14T05:40:52;17.40;62.40
20335;DHT22;10325;51.468;5.804;2023-03-14T05:43:19;17.40;62.30
20335;DHT22;10325;51.468;5.804;2023-03-14T05:45:47;17.40;62.30
20335;DHT22;10325;51.468;5.804;2023-03-14T05:48:15;17.40;62.40
20335;DHT22;10325;51.468;5.804;2023-03-14T05:50:47;17.40;62.30
20335;DHT22;10325;51.468;5.804;2023-03-14T05:53:20;17.40;62.30
20335;DHT22;10325;51.468;5.804;2023-03-14T05:55:56;17.40;62.30
20335;DHT22;10325;51.468;5.804;2023-03-14T05:58:26;17.40;62.20
20335;DHT22;10325;51.468;5.804;2023-03-14T06:00:53;17.30;62.10
20335;DHT22;10325;51.468;5.804;2023-03-14T06:03:21;17.40;62.30
20335;DHT22;10325;51.468;5.804;2023-03-14T06:06:04;17.40;62.20
20335;DHT22;10325;51.468;5.804;2023-03-14T06:08:36;17.40;62.20
20335;DHT22;10325;51.468;5.804;2023-03-14T06:11:07;17.30;62.20
20335;DHT22;10325;51.468;5.804;2023-03-14T06:13:38;17.30;62.20
20335;DHT22;10325;51.468;5.804;2023-03-14T06:16:07;17.40;62.30
20335;DHT22;10325;51.468;5.804;2023-03-14T06:18:41;17.40;62.30
20335;DHT22;10325;51.468;5.804;2023-03-14T06:21:13;17.40;62.30
20335;DHT22;10325;51.468;5.804;2023-03-14T06:23:46;17.40;62.40
20335;DHT22;10325;51.468;5.804;2023-03-14T06:26:17;17.40;62.30
20335;DHT22;10325;51.468;5.804;2023-03-14T06:28:47;17.40;62.30
20335;DHT22;10325;51.468;5.804;2023-03-14T06:31:19;17.40;62.20
20335;DHT22;10325;51.468;5.804;2023-03-14T06:33:48;17.40;62.30
20335;DHT22;10325;51.468;5.804;2023-03-14T06:36:18;17.30;62.20
20335;DHT22;10325;51.468;5.804;2023-03-14T06:38:49;17.40;62.20
20335;DHT22;10325;51.468;5.804;2023-03-14T06:41:19;17.40;62.40
20335;DHT22;10325;51.468;5.804;2023-03-14T06:43:49;17.30;62.10
20335;DHT22;10325;51.468;5.804;2023-03-14T06:46:18;17.40;62.20
20335;DHT22;10325;51.468;5.804;2023-03-14T06:48:48;17.40;62.20
20335;DHT22;10325;51.468;5.804;2023-03-14T06:51:18;17.40;62.20
20335;DHT22;10325;51.468;5.804;2023-03-14T06:53:49;17.40;62.30
20335;DHT22;10325;51.468;5.804;2023-03-14T06:56:20;17.40;62.20
20335;DHT22;10325;51.468;5.804;2023-03-14T06:58:51;17.40;62.30
20335;DHT22;10325;51.468;5.804;2023-03-14T07:01:29;17.40;62.10
20335;DHT22;10325;51.468;5.804;2023-03-14T07:04:02;17.40;62.20
20335;DHT22;10325;51.468;5.804;2023-03-14T07:06:33;17.40;62.00
20335;DHT22;10325;51.468;5.804;2023-03-14T07:09:04;17.40;62.30
20335;DHT22;10325;51.468;5.804;2023-03-14T07:11:33;17.40;62.20
20335;DHT22;10325;51.468;5.804;2023-03-14T07:14:04;17.40;62.10
20335;DHT22;10325;51.468;5.804;2023-03-14T07:16:37;17.40;62.20
20335;DHT22;10325;51.468;5.804;2023-03-14T07:19:09;17.40;62.10
20335;DHT22;10325;51.468;5.804;2023-03-14T07:21:38;17.40;62.10
20335;DHT22;10325;51.468;5.804;2023-03-14T07:24:07;17.40;62.10
20335;DHT22;10325;51.468;5.804;2023-03-14T07:26:38;17.40;62.10
20335;DHT22;10325;51.468;5.804;2023-03-14T07:29:06;17.40;62.00
20335;DHT22;10325;51.468;5.804;2023-03-14T07:31:38;17.40;62.00
20335;DHT22;10325;51.468;5.804;2023-03-14T07:34:13;17.40;62.30
20335;DHT22;10325;51.468;5.804;2023-03-14T07:36:43;17.40;62.10
20335;DHT22;10325;51.468;5.804;2023-03-14T07:39:15;17.40;62.30
20335;DHT22;10325;51.468;5.804;2023-03-14T07:41:47;17.50;62.20
20335;DHT22;10325;51.468;5.804;2023-03-14T07:44:19;17.40;62.10
20335;DHT22;10325;51.468;5.804;2023-03-14T07:46:50;17.40;62.20
20335;DHT22;10325;51.468;5.804;2023-03-14T07:49:23;17.50;62.90
20335;DHT22;10325;51.468;5.804;2023-03-14T07:51:55;17.50;63.10
20335;DHT22;10325;51.468;5.804;2023-03-14T07:54:27;17.50;63.20
20335;DHT22;10325;51.468;5.804;2023-03-14T07:56:56;17.50;62.90
20335;DHT22;10325;51.468;5.804;2023-03-14T07:59:32;17.50;63.30
20335;DHT22;10325;51.468;5.804;2023-03-14T08:02:02;17.50;63.30
20335;DHT22;10325;51.468;5.804;2023-03-14T08:04:40;17.60;63.80
20335;DHT22;10325;51.468;5.804;2023-03-14T08:07:09;17.70;63.70
20335;DHT22;10325;51.468;5.804;2023-03-14T08:09:40;17.80;63.30
20335;DHT22;10325;51.468;5.804;2023-03-14T08:12:10;17.80;63.30
20335;DHT22;10325;51.468;5.804;2023-03-14T08:14:42;17.90;63.20
20335;DHT22;10325;51.468;5.804;2023-03-14T08:17:12;18.00;63.20
20335;DHT22;10325;51.468;5.804;2023-03-14T08:19:44;18.00;62.80
20335;DHT22;10325;51.468;5.804;2023-03-14T08:22:15;18.10;62.50
20335;DHT22;10325;51.468;5.804;2023-03-14T08:24:51;18.10;62.30
20335;DHT22;10325;51.468;5.804;2023-03-14T08:27:19;18.20;62.10
20335;DHT22;10325;51.468;5.804;2023-03-14T08:29:58;18.30;61.90
20335;DHT22;10325;51.468;5.804;2023-03-14T08:32:26;18.30;61.60
20335;DHT22;10325;51.468;5.804;2023-03-14T08:34:58;18.40;61.50
20335;DHT22;10325;51.468;5.804;2023-03-14T08:37:30;18.50;61.40
20335;DHT22;10325;51.468;5.804;2023-03-14T08:40:02;18.60;61.70
20335;DHT22;10325;51.468;5.804;2023-03-14T08:42:39;18.60;61.50
20335;DHT22;10325;51.468;5.804;2023-03-14T08:45:11;18.70;61.10
20335;DHT22;10325;51.468;5.804;2023-03-14T08:47:38;18.70;61.00
20335;DHT22;10325;51.468;5.804;2023-03-14T08:50:09;18.80;60.80
20335;DHT22;10325;51.468;5.804;2023-03-14T08:52:54;18.90;60.50
20335;DHT22;10325;51.468;5.804;2023-03-14T08:55:29;18.90;60.10
20335;DHT22;10325;51.468;5.804;2023-03-14T08:57:57;19.00;59.60
20335;DHT22;10325;51.468;5.804;2023-03-14T09:00:28;19.10;59.60
20335;DHT22;10325;51.468;5.804;2023-03-14T09:02:59;19.10;59.30
20335;DHT22;10325;51.468;5.804;2023-03-14T09:05:28;19.20;59.20
20335;DHT22;10325;51.468;5.804;2023-03-14T09:07:59;19.20;58.70
20335;DHT22;10325;51.468;5.804;2023-03-14T09:10:27;19.30;58.60
20335;DHT22;10325;51.468;5.804;2023-03-14T09:13:00;19.30;58.70
20335;DHT22;10325;51.468;5.804;2023-03-14T09:15:29;19.30;59.00
20335;DHT22;10325;51.468;5.804;2023-03-14T09:17:59;19.40;58.40
20335;DHT22;10325;51.468;5.804;2023-03-14T09:20:29;19.40;58.40
20335;DHT22;10325;51.468;5.804;2023-03-14T09:23:02;19.40;58.20
20335;DHT22;10325;51.468;5.804;2023-03-14T09:25:33;19.50;58.20
20335;DHT22;10325;51.468;5.804;2023-03-14T09:28:03;19.50;58.20
20335;DHT22;10325;51.468;5.804;2023-03-14T09:30:31;19.60;58.00
20335;DHT22;10325;51.468;5.804;2023-03-14T09:33:03;19.50;57.80
20335;DHT22;10325;51.468;5.804;2023-03-14T09:35:36;19.60;57.90
20335;DHT22;10325;51.468;5.804;2023-03-14T09:38:06;19.60;57.50
20335;DHT22;10325;51.468;5.804;2023-03-14T09:40:38;19.70;57.80
20335;DHT22;10325;51.468;5.804;2023-03-14T09:43:11;19.70;57.70
20335;DHT22;10325;51.468;5.804;2023-03-14T09:45:46;19.70;57.70
20335;DHT22;10325;51.468;5.804;2023-03-14T09:48:24;19.70;57.60
20335;DHT22;10325;51.468;5.804;2023-03-14T09:50:58;19.70;57.50
20335;DHT22;10325;51.468;5.804;2023-03-14T09:53:48;19.70;57.40
20335;DHT22;10325;51.468;5.804;2023-03-14T09:56:31;19.70;57.20
20335;DHT22;10325;51.468;5.804;2023-03-14T09:59:03;19.80;56.80
20335;DHT22;10325;51.468;5.804;2023-03-14T10:01:33;19.80;55.80
20335;DHT22;10325;51.468;5.804;2023-03-14T10:04:13;19.70;55.20
20335;DHT22;10325;51.468;5.804;2023-03-14T10:06:46;19.60;54.90
20335;DHT22;10325;51.468;5.804;2023-03-14T10:09:23;19.60;55.30
20335;DHT22;10325;51.468;5.804;2023-03-14T10:11:59;19.40;55.10
20335;DHT22;10325;51.468;5.804;2023-03-14T10:14:45;19.30;55.50
20335;DHT22;10325;51.468;5.804;2023-03-14T10:17:16;19.20;55.40
20335;DHT22;10325;51.468;5.804;2023-03-14T10:20:00;19.10;55.40
20335;DHT22;10325;51.468;5.804;2023-03-14T10:22:30;19.10;55.90
20335;DHT22;10325;51.468;5.804;2023-03-14T10:25:05;19.00;56.30
20335;DHT22;10325;51.468;5.804;2023-03-14T10:27:39;18.90;56.10
20335;DHT22;10325;51.468;5.804;2023-03-14T10:30:37;18.80;56.30
20335;DHT22;10325;51.468;5.804;2023-03-14T10:33:25;18.80;56.50
20335;DHT22;10325;51.468;5.804;2023-03-14T10:36:04;18.70;56.40
20335;DHT22;10325;51.468;5.804;2023-03-14T10:38:41;18.70;56.60
20335;DHT22;10325;51.468;5.804;2023-03-14T10:41:27;18.60;56.50
20335;DHT22;10325;51.468;5.804;2023-03-14T10:44:01;18.60;56.70
20335;DHT22;10325;51.468;5.804;2023-03-14T10:46:32;18.50;56.40
20335;DHT22;10325;51.468;5.804;2023-03-14T10:49:34;18.50;56.00
20335;DHT22;10325;51.468;5.804;2023-03-14T10:52:25;18.40;56.20
20335;DHT22;10325;51.468;5.804;2023-03-14T10:55:14;18.40;56.10
20335;DHT22;10325;51.468;5.804;2023-03-14T10:57:45;18.30;56.20
20335;DHT22;10325;51.468;5.804;2023-03-14T11:00:24;18.30;56.40
20335;DHT22;10325;51.468;5.804;2023-03-14T11:03:10;18.30;56.50
20335;DHT22;10325;51.468;5.804;2023-03-14T11:06:28;18.20;56.50
20335;DHT22;10325;51.468;5.804;2023-03-14T11:09:15;18.20;56.60
20335;DHT22;10325;51.468;5.804;2023-03-14T11:11:48;18.20;56.50
20335;DHT22;10325;51.468;5.804;2023-03-14T11:14:36;18.20;56.60
20335;DHT22;10325;51.468;5.804;2023-03-14T11:20:22;18.10;56.30
20335;DHT22;10325;51.468;5.804;2023-03-14T11:23:08;18.10;56.30
20335;DHT22;10325;51.468;5.804;2023-03-14T11:28:47;18.00;56.00
20335;DHT22;10325;51.468;5.804;2023-03-14T11:31:31;18.00;56.10
20335;DHT22;10325;51.468;5.804;2023-03-14T11:39:59;17.90;55.90
20335;DHT22;10325;51.468;5.804;2023-03-14T11:42:37;17.90;56.00
20335;DHT22;10325;51.468;5.804;2023-03-14T11:45:30;17.90;55.80
20335;DHT22;10325;51.468;5.804;2023-03-14T11:48:38;17.90;55.80
20335;DHT22;10325;51.468;5.804;2023-03-14T11:51:35;17.80;55.70
20335;DHT22;10325;51.468;5.804;2023-03-14T11:54:33;17.80;55.70
20335;DHT22;10325;51.468;5.804;2023-03-14T11:57:17;17.80;55.80
20335;DHT22;10325;51.468;5.804;2023-03-14T12:00:14;17.80;56.00
20335;DHT22;10325;51.468;5.804;2023-03-14T12:09:02;17.70;56.50
20335;DHT22;10325;51.468;5.804;2023-03-14T12:11:52;17.70;56.70
20335;DHT22;10325;51.468;5.804;2023-03-14T12:14:37;17.70;56.90
20335;DHT22;10325;51.468;5.804;2023-03-14T12:17:20;17.70;57.10
20335;DHT22;10325;51.468;5.804;2023-03-14T12:20:03;17.70;57.20
20335;DHT22;10325;51.468;5.804;2023-03-14T12:22:47;17.70;57.30
20335;DHT22;10325;51.468;5.804;2023-03-14T12:25:30;17.70;57.50
20335;DHT22;10325;51.468;5.804;2023-03-14T12:28:30;17.70;57.70
20335;DHT22;10325;51.468;5.804;2023-03-14T12:31:35;17.60;57.40
20335;DHT22;10325;51.468;5.804;2023-03-14T12:37:23;17.60;56.90
20335;DHT22;10325;51.468;5.804;2023-03-14T12:40:19;17.60;56.60
20335;DHT22;10325;51.468;5.804;2023-03-14T12:43:33;17.60;56.90
20335;DHT22;10325;51.468;5.804;2023-03-14T12:46:21;17.60;56.90
20335;DHT22;10325;51.468;5.804;2023-03-14T12:49:08;17.50;56.90
20335;DHT22;10325;51.468;5.804;2023-03-14T12:51:45;17.50;56.80
20335;DHT22;10325;51.468;5.804;2023-03-14T12:54:46;17.50;56.80
20335;DHT22;10325;51.468;5.804;2023-03-14T12:59:58;17.50;56.60
20335;DHT22;10325;51.468;5.804;2023-03-14T13:02:41;17.50;56.50
20335;DHT22;10325;51.468;5.804;2023-03-14T13:05:24;17.50;56.60
20335;DHT22;10325;51.468;5.804;2023-03-14T13:10:38;17.50;56.60
20335;DHT22;10325;51.468;5.804;2023-03-14T13:13:24;17.50;56.60
20335;DHT22;10325;51.468;5.804;2023-03-14T13:16:09;17.40;56.50
20335;DHT22;10325;51.468;5.804;2023-03-14T13:19:15;17.40;56.30
20335;DHT22;10325;51.468;5.804;2023-03-14T13:21:50;17.40;56.10
20335;DHT22;10325;51.468;5.804;2023-03-14T13:24:27;17.40;56.20
20335;DHT22;10325;51.468;5.804;2023-03-14T13:26:56;17.40;56.10
20335;DHT22;10325;51.468;5.804;2023-03-14T13:29:32;17.40;55.50
20335;DHT22;10325;51.468;5.804;2023-03-14T13:32:22;17.40;55.40
20335;DHT22;10325;51.468;5.804;2023-03-14T13:34:58;17.40;55.50
20335;DHT22;10325;51.468;5.804;2023-03-14T13:37:30;17.40;54.60
20335;DHT22;10325;51.468;5.804;2023-03-14T13:40:00;17.40;54.70
20335;DHT22;10325;51.468;5.804;2023-03-14T13:42:33;17.30;54.70
20335;DHT22;10325;51.468;5.804;2023-03-14T13:45:09;17.30;55.20
20335;DHT22;10325;51.468;5.804;2023-03-14T13:47:42;17.30;55.00
20335;DHT22;10325;51.468;5.804;2023-03-14T13:50:17;17.40;55.00
20335;DHT22;10325;51.468;5.804;2023-03-14T13:52:47;17.30;55.00
20335;DHT22;10325;51.468;5.804;2023-03-14T13:55:23;17.30;55.10
20335;DHT22;10325;51.468;5.804;2023-03-14T13:57:53;17.30;55.10
20335;DHT22;10325;51.468;5.804;2023-03-14T14:00:30;17.30;54.80
20335;DHT22;10325;51.468;5.804;2023-03-14T14:02:59;17.30;54.80
20335;DHT22;10325;51.468;5.804;2023-03-14T14:05:39;17.30;54.90
20335;DHT22;10325;51.468;5.804;2023-03-14T14:08:31;17.30;54.80
20335;DHT22;10325;51.468;5.804;2023-03-14T14:11:01;17.30;55.00
20335;DHT22;10325;51.468;5.804;2023-03-14T14:13:34;17.20;55.10
20335;DHT22;10325;51.468;5.804;2023-03-14T14:16:09;17.30;54.80
20335;DHT22;10325;51.468;5.804;2023-03-14T14:18:37;17.30;54.50
20335;DHT22;10325;51.468;5.804;2023-03-14T14:21:08;17.20;54.20
20335;DHT22;10325;51.468;5.804;2023-03-14T14:23:45;17.20;54.00
20335;DHT22;10325;51.468;5.804;2023-03-14T14:26:18;17.20;53.90
20335;DHT22;10325;51.468;5.804;2023-03-14T14:29:05;17.20;54.20
20335;DHT22;10325;51.468;5.804;2023-03-14T14:31:45;17.20;54.50
20335;DHT22;10325;51.468;5.804;2023-03-14T14:34:19;17.20;54.50
20335;DHT22;10325;51.468;5.804;2023-03-14T14:36:49;17.10;54.40
20335;DHT22;10325;51.468;5.804;2023-03-14T14:39:29;17.10;54.60
20335;DHT22;10325;51.468;5.804;2023-03-14T14:41:59;17.20;54.70
20335;DHT22;10325;51.468;5.804;2023-03-14T14:44:36;17.20;54.10
20335;DHT22;10325;51.468;5.804;2023-03-14T14:47:12;17.10;54.10
20335;DHT22;10325;51.468;5.804;2023-03-14T14:49:44;17.10;54.20
20335;DHT22;10325;51.468;5.804;2023-03-14T14:55:20;17.20;54.30
20335;DHT22;10325;51.468;5.804;2023-03-14T14:57:53;17.20;54.30
20335;DHT22;10325;51.468;5.804;2023-03-14T15:00:27;17.10;54.10
20335;DHT22;10325;51.468;5.804;2023-03-14T15:03:02;17.10;54.20
20335;DHT22;10325;51.468;5.804;2023-03-14T15:05:32;17.10;54.00
20335;DHT22;10325;51.468;5.804;2023-03-14T15:08:15;17.10;53.80
20335;DHT22;10325;51.468;5.804;2023-03-14T15:10:46;17.10;53.90
20335;DHT22;10325;51.468;5.804;2023-03-14T15:13:15;17.10;54.10
20335;DHT22;10325;51.468;5.804;2023-03-14T15:15:44;17.10;54.00
20335;DHT22;10325;51.468;5.804;2023-03-14T15:18:37;17.10;54.50
20335;DHT22;10325;51.468;5.804;2023-03-14T15:21:08;17.10;54.30
20335;DHT22;10325;51.468;5.804;2023-03-14T15:23:38;17.10;54.30
20335;DHT22;10325;51.468;5.804;2023-03-14T15:26:15;17.10;54.30
20335;DHT22;10325;51.468;5.804;2023-03-14T15:28:45;17.10;54.10
20335;DHT22;10325;51.468;5.804;2023-03-14T15:31:18;17.10;54.10
20335;DHT22;10325;51.468;5.804;2023-03-14T15:33:50;17.00;54.10
20335;DHT22;10325;51.468;5.804;2023-03-14T15:36:28;17.00;54.30
20335;DHT22;10325;51.468;5.804;2023-03-14T15:39:06;17.10;54.00
20335;DHT22;10325;51.468;5.804;2023-03-14T15:41:38;17.00;54.00
20335;DHT22;10325;51.468;5.804;2023-03-14T15:44:10;17.10;54.10
20335;DHT22;10325;51.468;5.804;2023-03-14T15:46:38;17.00;54.10
20335;DHT22;10325;51.468;5.804;2023-03-14T15:49:11;17.00;53.80
20335;DHT22;10325;51.468;5.804;2023-03-14T15:51:42;17.00;53.90
20335;DHT22;10325;51.468;5.804;2023-03-14T15:54:12;17.00;54.00
20335;DHT22;10325;51.468;5.804;2023-03-14T15:56:45;17.00;54.00
20335;DHT22;10325;51.468;5.804;2023-03-14T15:59:15;17.00;54.10
20335;DHT22;10325;51.468;5.804;2023-03-14T16:01:45;17.00;54.00
20335;DHT22;10325;51.468;5.804;2023-03-14T16:04:23;17.00;54.00
20335;DHT22;10325;51.468;5.804;2023-03-14T16:06:50;17.00;54.00
20335;DHT22;10325;51.468;5.804;2023-03-14T16:09:19;17.00;54.00
20335;DHT22;10325;51.468;5.804;2023-03-14T16:11:53;17.00;54.00
20335;DHT22;10325;51.468;5.804;2023-03-14T16:14:21;17.00;53.80
20335;DHT22;10325;51.468;5.804;2023-03-14T16:16:52;16.90;53.80
20335;DHT22;10325;51.468;5.804;2023-03-14T16:19:23;17.00;54.00
20335;DHT22;10325;51.468;5.804;2023-03-14T16:21:56;17.00;53.90
20335;DHT22;10325;51.468;5.804;2023-03-14T16:24:26;17.00;53.80
20335;DHT22;10325;51.468;5.804;2023-03-14T16:26:57;17.00;53.50
20335;DHT22;10325;51.468;5.804;2023-03-14T16:29:30;16.90;53.50
20335;DHT22;10325;51.468;5.804;2023-03-14T16:32:00;16.90;53.80
20335;DHT22;10325;51.468;5.804;2023-03-14T16:34:32;16.90;53.80
20335;DHT22;10325;51.468;5.804;2023-03-14T16:37:00;16.90;54.10
20335;DHT22;10325;51.468;5.804;2023-03-14T16:39:32;16.90;54.20
20335;DHT22;10325;51.468;5.804;2023-03-14T16:42:26;16.90;54.20
20335;DHT22;10325;51.468;5.804;2023-03-14T16:44:57;16.90;54.50
20335;DHT22;10325;51.468;5.804;2023-03-14T16:47:28;16.90;54.80
20335;DHT22;10325;51.468;5.804;2023-03-14T16:49:59;16.90;54.90
20335;DHT22;10325;51.468;5.804;2023-03-14T16:52:34;16.90;54.90
20335;DHT22;10325;51.468;5.804;2023-03-14T16:55:04;16.90;55.00